Flight Track Log - Related Links

Times and Time Zones

All times are in EDT time to prevent confusion due to time zone crossing. See the TAM3001 flight status page for this flight to view local times or setup timezone preferences in your user account.

Time Position Orientation Groundspeed Altitude Reporting Facility
EDT Latitude Longitude Course Direction KTS MPH feet Rate Location/Type
Mon 06:11:51 AM -23.6300 -46.6590 North  Level FlightAware ADS-B
Mon 06:15:00 AM -23.7491 -46.8122 230° Southwest  Level Estimated
Mon 06:16:00 AM -23.8024 -46.8814 230° Southwest  Level Estimated
Mon 06:17:00 AM -23.8557 -46.9506 230° Southwest  Level Estimated
Mon 06:17:18 AM -23.6290 -46.6570 230° Southwest  Level FlightAware ADS-B
Mon 06:22:40 AM -23.6200 -46.6610 360° North 678 Level FlightAware ADS-B
Mon 06:23:49 AM -23.6440 -46.6450 149° Southeast 161 185 2,261 Level FlightAware ADS-B
Mon 06:23:57 AM -23.6500 -46.6440 171° South 154 177 4,522 Level FlightAware ADS-B
Mon 06:24:25 AM -23.6670 -46.6580 217° Southwest 190 219 5,115 Level FlightAware ADS-B
Mon 06:24:34 AM -23.6670 -46.6650 270° West 199 229 9,455 Level FlightAware ADS-B
Mon 06:24:58 AM -23.6640 -46.6900 277° West 195 224 5,200 7,733 Climbing FlightAware ADS-B
Mon 06:25:19 AM -23.6610 -46.7100 279° West 194 223 5,800 1,024 Climbing FlightAware ADS-B
Mon 06:25:39 AM -23.6580 -46.7300 279° West 194 223 5,900 115 Climbing FlightAware ADS-B
Mon 06:26:11 AM -23.6610 -46.7610 264° West 245 282 5,900  Level FlightAware ADS-B
Mon 06:26:26 AM -23.6680 -46.7820 250° West 268 308 5,900 450 Level FlightAware ADS-B
Mon 06:26:51 AM -23.6790 -46.8160 251° West 274 315 6,200 1,733 Climbing FlightAware ADS-B
Mon 06:27:11 AM -23.6880 -46.8420 249° West 272 313 7,200 3,136 Climbing FlightAware ADS-B
Mon 06:27:35 AM -23.6980 -46.8730 251° West 270 311 8,500 3,136 Climbing FlightAware ADS-B
Mon 06:27:55 AM -23.7060 -46.8980 251° West 270 311 9,500 2,769 Climbing FlightAware ADS-B
Mon 06:28:27 AM -23.7200 -46.9390 250° West 277 319 10,900 1,765 Climbing FlightAware ADS-B
Mon 06:29:03 AM -23.7360 -46.9910 251° West 319 367 11,500 1,583 Climbing FlightAware ADS-B
Mon 06:29:39 AM -23.7540 -47.0490 251° West 333 383 12,800 2,229 Climbing FlightAware ADS-B
Mon 06:30:13 AM -23.7700 -47.1030 252° West 336 387 14,100 2,057 Climbing FlightAware ADS-B
Mon 06:30:49 AM -23.7870 -47.1630 253° West 349 402 15,200 1,833 Climbing FlightAware ADS-B
Mon 06:31:25 AM -23.8050 -47.2230 252° West 356 410 16,300 1,833 Climbing FlightAware ADS-B
Mon 06:32:01 AM -23.8240 -47.2860 252° West 362 417 17,400 1,765 Climbing FlightAware ADS-B
Mon 06:32:33 AM -23.8400 -47.3420 253° West 369 425 18,300 1,765 Climbing FlightAware ADS-B
Mon 06:33:09 AM -23.8590 -47.4050 252° West 371 427 19,400 1,629 Climbing FlightAware ADS-B
Mon 06:33:43 AM -23.8770 -47.4670 252° West 380 437 20,200 1,333 Climbing FlightAware ADS-B
Mon 06:34:21 AM -23.8990 -47.5380 251° West 393 452 21,000 1,345 Climbing FlightAware ADS-B
Mon 06:34:41 AM -23.9130 -47.5740 247° West 402 463 21,500 1,393 Climbing FlightAware ADS-B
Mon 06:35:17 AM -23.9620 -47.6280 225° Southwest 422 486 22,300 1,324 Climbing FlightAware ADS-B
Mon 06:35:49 AM -24.0080 -47.6740 222° Southwest 425 489 23,000 1,500 Climbing FlightAware ADS-B
Mon 06:36:25 AM -24.0600 -47.7260 222° Southwest 428 493 24,000 2,083 Climbing FlightAware ADS-B
Mon 06:37:01 AM -24.1120 -47.7790 223° Southwest 412 474 25,500 2,250 Climbing FlightAware ADS-B
Mon 06:37:37 AM -24.1620 -47.8300 223° Southwest 406 467 26,700 1,941 Climbing FlightAware ADS-B
Mon 06:38:09 AM -24.2050 -47.8730 222° Southwest 401 461 27,700 1,147 Climbing FlightAware ADS-B
Mon 06:38:45 AM -24.2550 -47.9240 223° Southwest 401 461 28,000 250 Climbing FlightAware ADS-B
Mon 06:39:21 AM -24.3040 -47.9740 223° Southwest 399 459 28,000  Level FlightAware ADS-B
Mon 06:39:53 AM -24.3470 -48.0180 223° Southwest 402 463 28,000  Level FlightAware ADS-B
Mon 06:40:29 AM -24.3960 -48.0670 222° Southwest 401 461 28,000  Level FlightAware ADS-B
Mon 06:41:05 AM -24.4460 -48.1190 223° Southwest 401 461 28,000  Level FlightAware ADS-B
Mon 06:41:37 AM -24.4880 -48.1610 222° Southwest 401 461 28,000  Level FlightAware ADS-B
Mon 06:42:13 AM -24.5360 -48.2100 223° Southwest 399 459 28,000 -545 Level FlightAware ADS-B
Mon 06:42:43 AM -24.5760 -48.2520 224° Southwest 396 456 27,400 -1,690 Descending FlightAware ADS-B
Mon 06:43:24 AM -24.6320 -48.3090 223° Southwest 387 445 26,000 -2,104 Descending FlightAware ADS-B
Mon 06:44:00 AM -24.6790 -48.3570 223° Southwest 386 444 24,700 -2,583 Descending FlightAware ADS-B
Mon 06:44:36 AM -24.7270 -48.4060 223° Southwest 399 459 22,900 -2,609 Descending FlightAware ADS-B
Mon 06:45:09 AM -24.7710 -48.4520 224° Southwest 393 452 21,700 -2,000 Descending FlightAware ADS-B
Mon 06:45:45 AM -24.8190 -48.5010 223° Southwest 374 430 20,600 -1,917 Descending FlightAware ADS-B
Mon 06:46:21 AM -24.8640 -48.5470 223° Southwest 363 418 19,400 -1,750 Descending FlightAware ADS-B
Mon 06:46:57 AM -24.9060 -48.5900 223° Southwest 348 400 18,500 -1,588 Descending FlightAware ADS-B
Mon 06:47:29 AM -24.9430 -48.6280 223° Southwest 338 389 17,600 -1,588 Descending FlightAware ADS-B
Mon 06:48:05 AM -24.9830 -48.6700 224° Southwest 330 380 16,700 -1,313 Descending FlightAware ADS-B
Mon 06:48:33 AM -25.0120 -48.7030 226° Southwest 320 368 16,200 -1,050 Descending FlightAware ADS-B
Mon 06:48:45 AM -25.0190 -48.7210 247° West 306 352 16,000 -955 Descending FlightAware ADS-B
Mon 06:49:17 AM -25.0290 -48.7690 257° West 302 348 15,500 -917 Descending FlightAware ADS-B
Mon 06:49:57 AM -25.0430 -48.8290 256° West 300 345 14,900 -947 Descending FlightAware ADS-B
Mon 06:50:33 AM -25.0550 -48.8800 255° West 299 344 14,300 -1,059 Descending FlightAware ADS-B
Mon 06:51:05 AM -25.0660 -48.9300 256° West 298 343 13,700 -971 Descending FlightAware ADS-B
Mon 06:51:41 AM -25.0780 -48.9830 256° West 298 343 13,200 -1,315 Descending FlightAware ADS-B
Mon 06:52:18 AM -25.0900 -49.0380 256° West 300 345 12,100 -1,833 Descending FlightAware ADS-B
Mon 06:52:53 AM -25.1020 -49.0900 256° West 301 346 11,000 -1,612 Descending FlightAware ADS-B
Mon 06:53:25 AM -25.1130 -49.1390 256° West 293 337 10,300 -1,065 Descending FlightAware ADS-B
Mon 06:53:55 AM -25.1220 -49.1800 256° West 271 312 9,900 -933 Descending FlightAware ADS-B
Mon 06:54:10 AM -25.1270 -49.1990 254° West 266 306 9,600 -1,333 Descending FlightAware ADS-B
Mon 06:54:22 AM -25.1310 -49.2150 255° West 268 308 9,300 -1,200 Descending FlightAware ADS-B
Mon 06:54:30 AM -25.1360 -49.2240 238° Southwest 274 315 9,200 -1,500 Descending FlightAware ADS-B
Mon 06:54:38 AM -25.1440 -49.2330 226° Southwest 281 323 8,900 -2,333 Descending FlightAware ADS-B
Mon 06:54:48 AM -25.1560 -49.2420 214° Southwest 295 339 8,500 -2,100 Descending FlightAware ADS-B
Mon 06:54:58 AM -25.1690 -49.2480 203° Southwest 308 354 8,200 -1,636 Descending FlightAware ADS-B
Mon 06:55:10 AM -25.1840 -49.2520 194° South 306 352 7,900 -1,500 Descending FlightAware ADS-B
Mon 06:55:34 AM -25.2170 -49.2610 194° South 300 345 7,300 -1,500 Descending FlightAware ADS-B
Mon 06:55:54 AM -25.2440 -49.2690 195° South 296 341 6,800 -1,500 Descending FlightAware ADS-B
Mon 06:56:06 AM -25.2600 -49.2740 196° South 295 339 6,500 -1,500 Descending FlightAware ADS-B
Mon 06:56:26 AM -25.2870 -49.2810 193° South 292 336 6,000 -1,143 Descending FlightAware ADS-B
Mon 06:56:48 AM -25.3140 -49.2890 195° South 278 320 5,700 -682 Descending FlightAware ADS-B
Mon 06:57:10 AM -25.3400 -49.2960 194° South 263 303 5,500 -474 Descending FlightAware ADS-B
Mon 06:57:26 AM -25.3590 -49.3010 193° South 252 290 5,400 -162 Descending FlightAware ADS-B
Mon 06:57:47 AM -25.3820 -49.3070 193° South 233 268 5,400  Level FlightAware ADS-B
Mon 06:58:01 AM -25.3960 -49.3110 194° South 221 254 5,400  Level FlightAware ADS-B
Mon 06:58:27 AM -25.4180 -49.2990 154° Southeast 183 211 5,400  Level FlightAware ADS-B
Mon 06:58:43 AM -25.4270 -49.2890 135° Southeast 169 194 5,400 -333 Level FlightAware ADS-B
Mon 06:59:03 AM -25.4380 -49.2770 135° Southeast 169 194 5,200 -750 Descending FlightAware ADS-B
Mon 06:59:23 AM -25.4480 -49.2660 135° Southeast 154 177 4,900 -857 Descending FlightAware ADS-B
Mon 06:59:38 AM -25.4550 -49.2580 134° Southeast 141 162 4,700 -649 Descending FlightAware ADS-B
Mon 07:00:00 AM -25.4650 -49.2470 135° Southeast 132 152 4,500 -714 Descending FlightAware ADS-B
Mon 07:00:20 AM -25.4740 -49.2370 135° Southeast 131 151 4,200 -750 Descending FlightAware ADS-B
Mon 07:00:40 AM -25.4820 -49.2280 135° Southeast 131 151 4,000 -750 Descending FlightAware ADS-B
Mon 07:01:00 AM -25.4910 -49.2180 135° Southeast 132 152 3,700 -714 Descending FlightAware ADS-B
Mon 07:01:22 AM -25.5000 -49.2070 132° Southeast 132 152 3,500 -682 Descending FlightAware ADS-B
Mon 07:01:44 AM -25.5100 -49.1960 135° Southeast 132 152 3,200 -714 Descending FlightAware ADS-B
Mon 07:02:04 AM -25.5190 -49.1870 138° Southeast 132 152 3,000 -600 Descending FlightAware ADS-B
Mon 07:02:28 AM -25.5280 -49.1760 132° Southeast 86 99 -7,500 Descending FlightAware ADS-B

Login

Don't have an account? Register now (free) for customized features, flight alerts, and more!